Time;durP1;ratioP1;P1;durP2;ratioP2;P2;SDS_P1;SDS_P2;PMS_P1;PMS_P2;Temp;Humidity;BMP_temperature;BMP_pressure;BME280_temperature;BME280_humidity;BME280_pressure;Samples;Min_cycle;Max_cycle;Signal;HPM_P1;HPM_P2
2022/07/12 00:02:19;;;;;;;3.78;2.30;;;;;;;23.10;49.49;98672.50;4935541;29;20571;-68
2022/07/12 00:04:46;;;;;;;5.55;2.30;;;;;;;23.08;49.50;98659.94;4938353;29;20059;-69
2022/07/12 00:07:13;;;;;;;4.32;2.45;;;;;;;23.07;49.44;98656.31;4943623;28;20051;-68
2022/07/12 00:09:42;;;;;;;5.10;2.42;;;;;;;23.12;49.56;98663.53;4957241;29;20134;-68
2022/07/12 00:12:10;;;;;;;6.97;2.92;;;;;;;23.12;49.67;98664.31;4957481;28;20141;-68
2022/07/12 00:14:37;;;;;;;7.35;2.83;;;;;;;23.10;49.81;98671.69;4957306;28;20535;-68
2022/07/12 00:17:04;;;;;;;3.90;2.60;;;;;;;23.05;49.82;98653.13;4957353;28;20503;-68
2022/07/12 00:19:32;;;;;;;3.67;2.42;;;;;;;23.04;49.93;98654.34;4957143;28;20047;-69
2022/07/12 00:21:59;;;;;;;4.25;2.28;;;;;;;23.05;49.83;98670.16;4957025;28;20507;-67
2022/07/12 00:24:26;;;;;;;6.97;2.28;;;;;;;23.05;49.87;98653.13;4957008;29;20061;-68
2022/07/12 00:26:53;;;;;;;4.45;2.30;;;;;;;23.07;49.73;98656.31;4957119;28;20050;-68
2022/07/12 00:29:20;;;;;;;3.83;2.05;;;;;;;23.09;49.61;98650.19;4955832;29;20043;-68
2022/07/12 00:31:46;;;;;;;5.10;2.63;;;;;;;23.08;49.54;98646.56;4957838;28;20052;-68
2022/07/12 00:34:14;;;;;;;8.00;2.40;;;;;;;23.11;49.65;98657.06;4956317;28;20063;-68
2022/07/12 00:36:41;;;;;;;4.43;2.20;;;;;;;23.08;49.44;98645.78;4956656;29;20058;-68
2022/07/12 00:39:10;;;;;;;3.90;2.20;;;;;;;23.08;49.71;98645.78;4956455;28;20127;-68
2022/07/12 00:41:37;;;;;;;4.35;2.63;;;;;;;23.08;49.87;98645.78;4956913;28;20054;-68
2022/07/12 00:44:04;;;;;;;5.50;3.17;;;;;;;23.09;49.74;98653.84;4957079;28;20558;-69
2022/07/12 00:46:31;;;;;;;4.05;2.28;;;;;;;23.08;49.89;98646.56;4956719;28;20472;-69
2022/07/12 00:48:58;;;;;;;6.25;2.42;;;;;;;23.02;50.09;98636.97;4956757;28;20051;-69
2022/07/12 00:51:25;;;;;;;6.18;2.53;;;;;;;23.04;50.19;98631.66;4956364;28;20058;-67
2022/07/12 00:53:55;;;;;;;5.57;2.67;;;;;;;23.01;50.30;98623.22;4956616;28;20133;-68
2022/07/12 00:56:22;;;;;;;6.38;2.60;;;;;;;22.97;50.23;98616.81;4956398;28;20463;-68
2022/07/12 00:58:49;;;;;;;5.97;2.20;;;;;;;22.96;50.28;98615.22;4956462;29;20507;-68
2022/07/12 01:01:17;;;;;;;3.78;2.53;;;;;;;22.94;50.39;98598.66;4956252;28;20130;-69
2022/07/12 01:03:44;;;;;;;43.92;20.13;;;;;;;22.97;50.27;98605.47;4956505;28;20051;-68
2022/07/12 01:06:11;;;;;;;6.05;3.30;;;;;;;22.98;50.45;98595.75;4956337;29;20062;-69
2022/07/12 01:08:39;;;;;;;7.40;2.55;;;;;;;22.95;50.50;98586.06;4956396;29;20047;-68
2022/07/12 01:11:07;;;;;;;5.15;2.97;;;;;;;22.93;50.68;98576.38;4956065;28;20057;-71
2022/07/12 01:13:36;;;;;;;4.03;2.70;;;;;;;22.90;50.86;98595.09;4956310;28;20130;-72
2022/07/12 01:16:05;;;;;;;3.60;2.08;;;;;;;22.84;51.00;98582.66;4956140;28;20051;-68
2022/07/12 01:18:33;;;;;;;3.88;2.60;;;;;;;22.81;51.06;98580.69;4944388;28;20048;-68
2022/07/12 01:21:05;;;;;;;4.82;2.60;;;;;;;22.79;51.22;98577.50;4943777;29;20043;-68
2022/07/12 01:23:34;;;;;;;4.05;2.53;;;;;;;22.78;51.37;98589.28;4955909;28;20153;-68
2022/07/12 01:26:03;;;;;;;6.33;2.77;;;;;;;22.75;51.44;98582.44;4956082;28;20051;-68
2022/07/12 01:28:30;;;;;;;4.68;2.50;;;;;;;22.74;51.51;98580.06;4955726;28;20058;-68
2022/07/12 01:30:57;;;;;;;6.00;2.90;;;;;;;22.69;51.45;98572.03;4955945;28;20142;-67
2022/07/12 01:33:26;;;;;;;7.20;3.50;;;;;;;22.69;51.38;98575.69;4955748;28;20051;-68
2022/07/12 01:35:53;;;;;;;6.72;2.63;;;;;;;22.69;51.34;98563.53;4955357;29;20153;-68
2022/07/12 01:38:20;;;;;;;9.93;2.90;;;;;;;22.72;51.22;98576.84;4955511;28;20050;-68
2022/07/12 01:40:47;;;;;;;3.58;2.38;;;;;;;22.70;51.22;98536.78;4955770;28;20530;-68
2022/07/12 01:43:14;;;;;;;6.65;2.80;;;;;;;22.75;51.10;98542.75;4955619;28;20059;-68
2022/07/12 01:45:41;;;;;;;5.55;3.35;;;;;;;22.75;51.13;98550.44;4955278;28;20129;-69
2022/07/12 01:48:08;;;;;;;4.68;2.80;;;;;;;22.69;51.26;98544.50;4955624;29;20043;-69
2022/07/12 01:50:35;;;;;;;6.30;3.20;;;;;;;22.71;51.51;98519.31;4954224;29;20054;-68
2022/07/12 01:53:07;;;;;;;6.95;3.35;;;;;;;22.68;51.81;98520.19;4955603;28;20519;-67
2022/07/12 01:55:34;;;;;;;8.68;3.47;;;;;;;22.68;52.04;98519.41;4955803;28;20151;-68
2022/07/12 01:58:01;;;;;;;4.45;2.95;;;;;;;22.67;52.15;98532.78;4955554;28;20058;-68
2022/07/12 02:00:29;;;;;;;7.72;3.42;;;;;;;22.60;52.45;98540.66;4955354;28;20051;-68
2022/07/12 02:02:56;;;;;;;4.28;3.33;;;;;;;22.54;52.53;98528.22;4955345;28;20082;-68
2022/07/12 02:05:24;;;;;;;5.45;3.25;;;;;;;22.57;52.65;98524.50;4955145;29;20150;-68
2022/07/12 02:07:52;;;;;;;5.10;2.80;;;;;;;22.55;52.66;98513.59;4943856;28;20040;-68
2022/07/12 02:10:21;;;;;;;8.77;4.78;;;;;;;22.52;52.50;98505.16;4935850;29;20051;-68
2022/07/12 02:12:48;;;;;;;5.55;3.20;;;;;;;22.49;52.89;98497.50;4955437;28;20051;-68
2022/07/12 02:15:15;;;;;;;7.50;3.10;;;;;;;22.52;52.83;98505.97;4954908;28;20165;-68
2022/07/12 02:17:42;;;;;;;5.22;3.20;;;;;;;22.48;53.21;98502.41;4955145;28;20415;-69
2022/07/12 02:20:12;;;;;;;6.90;3.17;;;;;;;22.48;53.17;98499.56;4954931;28;20053;-68
2022/07/12 02:22:39;;;;;;;;;;;;;;;22.32;53.54;98502.31;4955475;28;20051;-68
2022/07/12 02:25:06;;;;;;;7.80;3.47;;;;;;;22.34;53.76;98487.69;4954296;28;20298;-68
2022/07/12 02:27:33;;;;;;;10.13;4.35;;;;;;;22.32;53.77;98495.88;4954974;29;20055;-68
2022/07/12 02:30:00;;;;;;;6.50;3.22;;;;;;;22.35;53.83;98495.00;4954793;28;20190;-67
2022/07/12 02:32:29;;;;;;;4.63;2.95;;;;;;;22.34;53.89;98488.50;4954947;28;20055;-68
2022/07/12 02:34:56;;;;;;;6.18;3.50;;;;;;;22.32;53.91;98490.97;4935643;29;20543;-68
2022/07/12 02:37:24;;;;;;;9.90;3.17;;;;;;;22.29;54.07;98488.22;4935960;29;20059;-67
2022/07/12 02:39:51;;;;;;;6.65;3.40;;;;;;;22.25;53.93;98485.47;4935575;29;20412;-68
2022/07/12 02:42:18;;;;;;;8.45;3.60;;;;;;;22.27;54.06;98488.66;4935508;29;20056;-72
2022/07/12 02:44:45;;;;;;;4.85;3.25;;;;;;;22.28;54.03;98489.44;4935760;29;20063;-71
2022/07/12 02:47:12;;;;;;;5.65;3.10;;;;;;;22.33;54.00;98491.78;4935643;29;20075;-71
2022/07/12 02:49:39;;;;;;;4.55;3.13;;;;;;;22.38;53.89;98500.56;4935543;29;20055;-72
2022/07/12 02:52:06;;;;;;;9.82;3.60;;;;;;;22.41;53.76;98494.03;4934660;29;20047;-71
2022/07/12 02:54:33;;;;;;;11.98;3.70;;;;;;;22.41;53.93;98494.03;4935643;29;20099;-71
2022/07/12 02:57:02;;;;;;;5.93;3.17;;;;;;;22.36;53.89;98491.72;4935403;29;20607;-71
2022/07/12 02:59:29;;;;;;;5.03;3.13;;;;;;;22.36;53.82;98502.25;4942544;29;20046;-71
2022/07/12 03:01:57;;;;;;;6.68;3.50;;;;;;;22.34;53.78;98502.69;4954399;28;20065;-71
2022/07/12 03:04:24;;;;;;;4.70;3.35;;;;;;;22.38;53.79;98511.91;4954528;28;20454;-71
2022/07/12 03:06:51;;;;;;;7.45;3.65;;;;;;;22.35;53.68;98501.44;4954427;29;20503;-68
2022/07/12 03:09:18;;;;;;;5.85;3.58;;;;;;;22.36;53.52;98505.88;4953311;29;20086;-68
2022/07/12 03:11:46;;;;;;;15.57;3.80;;;;;;;22.33;53.53;98503.13;4954235;28;20047;-67
2022/07/12 03:14:13;;;;;;;4.72;3.00;;;;;;;22.30;53.59;98521.00;4954199;28;20134;-68
2022/07/12 03:16:40;;;;;;;6.55;3.17;;;;;;;22.29;53.58;98514.50;4954486;28;20059;-67
2022/07/12 03:19:08;;;;;;;8.38;3.30;;;;;;;22.28;53.46;98529.13;4954290;29;20055;-68
2022/07/12 03:21:35;;;;;;;9.07;3.47;;;;;;;22.32;53.34;98516.47;4954016;28;20047;-67
2022/07/12 03:24:01;;;;;;;5.43;3.30;;;;;;;22.40;53.37;98515.09;4954208;28;20055;-67
2022/07/12 03:26:28;;;;;;;6.80;3.70;;;;;;;22.47;53.18;98520.63;4954075;28;20055;-71
2022/07/12 03:28:55;;;;;;;5.75;3.35;;;;;;;22.51;52.77;98527.06;4954340;28;20054;-72
2022/07/12 03:31:22;;;;;;;10.10;3.30;;;;;;;22.58;53.00;98515.56;4954020;28;20054;-72
2022/07/12 03:33:49;;;;;;;10.27;4.18;;;;;;;22.56;52.96;98523.69;4954335;28;20503;-73
2022/07/12 03:36:16;;;;;;;7.38;3.75;;;;;;;22.52;53.11;98517.31;4953804;28;20061;-73
2022/07/12 03:38:43;;;;;;;5.55;3.30;;;;;;;22.44;53.27;98530.00;4956863;28;20077;-73
2022/07/12 03:41:10;;;;;;;5.18;3.30;;;;;;;22.37;53.62;98520.84;4957904;28;20049;-73
2022/07/12 03:43:37;;;;;;;13.50;4.18;;;;;;;22.34;53.74;98511.19;4958095;28;20043;-73
2022/07/12 03:46:04;;;;;;;7.15;4.07;;;;;;;22.35;53.67;98518.44;4956622;29;20463;-74
2022/07/12 03:48:31;;;;;;;9.13;3.65;;;;;;;22.32;53.67;98513.66;4957715;29;20073;-68
2022/07/12 03:50:58;;;;;;;8.30;3.75;;;;;;;22.40;53.64;98505.78;4955965;29;20059;-68
2022/07/12 03:53:25;;;;;;;5.80;3.63;;;;;;;22.63;53.05;98531.25;4957504;28;20411;-67
2022/07/12 03:55:52;;;;;;;6.20;3.42;;;;;;;22.80;52.46;98508.19;4957565;29;20526;-73
2022/07/12 03:58:19;;;;;;;8.98;3.88;;;;;;;23.00;52.08;98520.28;4957679;28;20051;-73
2022/07/12 04:00:46;;;;;;;6.95;3.40;;;;;;;23.10;51.76;98519.28;4957261;28;20135;-73
2022/07/12 04:03:13;;;;;;;7.60;3.88;;;;;;;23.16;51.61;98519.53;4957236;28;20626;-72
2022/07/12 04:05:40;;;;;;;10.75;3.67;;;;;;;23.21;51.58;98536.03;4957390;28;20075;-72
2022/07/12 04:08:07;;;;;;;20.00;4.93;;;;;;;23.39;51.22;98525.88;4957258;28;20059;-74
2022/07/12 04:10:34;;;;;;;11.02;4.18;;;;;;;23.47;51.25;98532.19;4957244;28;20047;-71
2022/07/12 04:13:01;;;;;;;7.63;3.95;;;;;;;23.56;51.24;98549.38;4957268;28;20147;-72
2022/07/12 04:15:28;;;;;;;14.18;4.55;;;;;;;23.76;50.51;98523.75;4957037;29;20053;-72
2022/07/12 04:17:55;;;;;;;8.90;4.63;;;;;;;23.98;50.00;98536.19;4957212;28;20143;-72
2022/07/12 04:20:22;;;;;;;10.00;4.03;;;;;;;23.92;50.14;98546.47;4956925;29;20094;-72
2022/07/12 04:22:49;;;;;;;7.95;4.45;;;;;;;23.78;50.62;98555.34;4957560;28;20453;-72
2022/07/12 04:25:16;;;;;;;6.95;4.53;;;;;;;23.59;51.18;98542.81;4956748;28;20150;-72
2022/07/12 04:27:43;;;;;;;8.05;4.13;;;;;;;23.64;51.37;98538.66;4957483;28;20059;-72
2022/07/12 04:30:10;;;;;;;5.28;3.75;;;;;;;23.69;50.98;98555.16;4956868;29;20411;-71
2022/07/12 04:32:37;;;;;;;14.07;4.55;;;;;;;23.64;50.88;98547.97;4951607;28;20055;-72
2022/07/12 04:35:05;;;;;;;7.25;4.03;;;;;;;23.60;51.30;98547.28;4937336;29;20142;-71
2022/07/12 04:37:32;;;;;;;14.70;4.10;;;;;;;23.49;51.34;98546.75;4938811;29;20191;-73
2022/07/12 04:39:58;;;;;;;7.00;4.07;;;;;;;23.45;51.62;98545.22;4956722;28;20052;-72
2022/07/12 04:42:25;;;;;;;8.18;4.72;;;;;;;23.50;51.45;98542.66;4955186;29;20065;-73
2022/07/12 04:44:53;;;;;;;6.68;4.25;;;;;;;23.44;51.73;98566.34;4956493;29;20114;-72
2022/07/12 04:47:20;;;;;;;8.30;4.78;;;;;;;23.38;51.79;98547.00;4956447;29;20047;-72
2022/07/12 04:49:47;;;;;;;8.82;5.85;;;;;;;23.38;51.68;98556.75;4956228;28;20055;-72
2022/07/12 04:52:14;;;;;;;9.93;4.55;;;;;;;23.36;51.92;98538.13;4956752;29;20047;-73
2022/07/12 04:54:41;;;;;;;12.00;4.72;;;;;;;23.50;51.20;98547.53;4956260;29;20053;-72
2022/07/12 04:57:08;;;;;;;10.45;4.75;;;;;;;23.45;51.78;98567.94;4956707;29;20051;-72
2022/07/12 04:59:34;;;;;;;11.25;5.47;;;;;;;23.28;52.03;98553.72;4956277;29;20078;-72
2022/07/12 05:02:02;;;;;;;10.63;4.35;;;;;;;23.22;52.26;98581.00;4956225;28;20054;-72
2022/07/12 05:04:33;;;;;;;9.30;4.40;;;;;;;23.18;52.55;98560.41;4956077;29;20043;-72
2022/07/12 05:07:00;;;;;;;7.68;4.50;;;;;;;23.10;52.74;98558.19;4956064;28;20062;-72
2022/07/12 05:09:29;;;;;;;8.82;4.55;;;;;;;23.00;52.79;98565.69;4956373;28;20052;-71
2022/07/12 05:11:57;;;;;;;8.95;4.25;;;;;;;22.96;53.00;98564.16;4956446;28;20411;-72
2022/07/12 05:14:25;;;;;;;7.95;4.88;;;;;;;22.94;53.03;98555.28;4955889;29;20146;-72
2022/07/12 05:16:52;;;;;;;10.20;4.63;;;;;;;22.92;53.27;98554.94;4956485;28;20083;-72
2022/07/12 05:19:21;;;;;;;7.07;4.25;;;;;;;22.92;53.12;98554.94;4954592;28;20133;-73
2022/07/12 05:21:48;;;;;;;13.98;4.20;;;;;;;22.91;53.19;98565.47;4950944;28;20043;-73
2022/07/12 05:24:15;;;;;;;8.60;5.05;;;;;;;22.94;52.87;98550.41;4936765;28;20105;-73
2022/07/12 05:26:42;;;;;;;7.75;4.60;;;;;;;22.97;52.88;98566.56;4935250;29;20147;-73
2022/07/12 05:29:09;;;;;;;6.93;3.63;;;;;;;23.04;52.87;98560.72;4951274;28;20053;-74
2022/07/12 05:31:36;;;;;;;8.07;4.53;;;;;;;23.07;52.92;98554.16;4955769;28;20120;-74
2022/07/12 05:34:03;;;;;;;11.57;4.55;;;;;;;23.04;52.72;98560.72;4954336;29;20507;-73
2022/07/12 05:36:30;;;;;;;12.65;3.88;;;;;;;23.04;52.92;98560.72;4955276;29;20479;-71
2022/07/12 05:38:57;;;;;;;6.38;4.32;;;;;;;23.09;52.84;98565.06;4955489;28;20050;-69
2022/07/12 05:41:24;;;;;;;10.68;4.13;;;;;;;23.14;52.63;98570.25;4955454;29;20051;-69
2022/07/12 05:43:51;;;;;;;14.18;7.30;;;;;;;23.26;52.42;98561.06;4955538;29;20078;-70
2022/07/12 05:46:18;;;;;;;15.10;4.43;;;;;;;23.50;51.86;98562.53;4953789;29;20051;-69
2022/07/12 05:48:45;;;;;;;11.02;4.25;;;;;;;23.52;51.79;98576.28;4955371;29;20458;-69
2022/07/12 05:53:58;;;;;;;8.30;4.40;;;;;;;23.30;52.40;98573.16;4955130;28;20467;-68
2022/07/12 05:56:25;;;;;;;9.57;4.45;;;;;;;23.09;53.86;98588.59;4955524;28;20094;-69
2022/07/12 05:58:52;;;;;;;16.33;5.07;;;;;;;22.53;56.24;98581.28;4954121;29;20061;-70
2022/07/12 06:01:19;;;;;;;8.55;4.25;;;;;;;22.06;58.68;98579.75;4954343;28;20047;-69
2022/07/12 06:03:46;;;;;;;10.38;4.90;;;;;;;22.06;59.30;98579.75;4955235;28;20047;-68
2022/07/12 06:06:13;;;;;;;11.30;5.07;;;;;;;22.20;59.19;98573.00;4955081;28;20411;-69
2022/07/12 06:08:40;;;;;;;8.05;5.05;;;;;;;22.34;58.72;98567.06;4955115;28;20055;-69
2022/07/12 06:11:07;;;;;;;11.48;4.65;;;;;;;22.38;58.83;98568.59;4948151;29;20082;-69
2022/07/12 06:13:34;;;;;;;9.60;4.70;;;;;;;22.48;58.44;98573.25;4937538;29;20537;-68
2022/07/12 06:16:01;;;;;;;9.52;5.20;;;;;;;22.52;58.33;98579.69;4954755;28;20082;-68
2022/07/12 06:18:28;;;;;;;14.43;4.95;;;;;;;22.55;58.46;98584.47;4954683;28;20530;-68
2022/07/12 06:20:55;;;;;;;12.25;4.82;;;;;;;22.53;58.64;98572.75;4953425;29;20534;-69
2022/07/12 06:23:22;;;;;;;7.00;4.35;;;;;;;22.55;58.59;98581.66;4953887;29;20066;-68
2022/07/12 06:25:49;;;;;;;8.75;4.53;;;;;;;22.57;58.72;98575.53;4954669;28;20138;-68
2022/07/12 06:28:21;;;;;;;9.52;5.18;;;;;;;22.57;58.54;98576.34;4954734;28;20337;-70
2022/07/12 06:30:51;;;;;;;12.13;5.00;;;;;;;22.67;58.36;98575.31;4953173;29;20058;-68
2022/07/12 06:33:18;;;;;;;9.45;5.72;;;;;;;22.70;57.91;98576.47;4954679;28;20081;-70
2022/07/12 06:35:45;;;;;;;7.75;4.82;;;;;;;22.75;57.84;98588.13;4954396;28;20059;-70
2022/07/12 06:38:11;;;;;;;9.05;5.20;;;;;;;22.78;57.97;98592.91;4954745;28;20062;-68
2022/07/12 06:40:38;;;;;;;9.65;5.68;;;;;;;22.75;57.80;98585.28;4954436;28;20047;-68
2022/07/12 06:43:10;;;;;;;6.93;4.82;;;;;;;22.73;57.76;98595.44;4954498;29;20058;-69
2022/07/12 06:45:37;;;;;;;10.57;5.72;;;;;;;22.66;57.71;98592.75;4953818;29;20102;-69
2022/07/12 06:48:05;;;;;;;10.63;4.78;;;;;;;22.70;57.64;98594.28;4954474;28;20149;-68
2022/07/12 06:50:32;;;;;;;8.40;4.53;;;;;;;22.66;57.77;98596.41;4954363;28;20549;-68
2022/07/12 06:52:59;;;;;;;11.23;5.63;;;;;;;22.65;58.05;98596.84;4954155;28;20113;-69
2022/07/12 06:55:26;;;;;;;6.45;4.47;;;;;;;22.61;57.90;98602.56;4954090;28;20058;-69
2022/07/12 06:57:53;;;;;;;9.68;5.10;;;;;;;22.52;57.88;98599.53;4954541;28;20138;-69
2022/07/12 07:00:22;;;;;;;13.88;6.22;;;;;;;22.51;57.99;98600.78;4948851;28;20492;-69
2022/07/12 07:02:49;;;;;;;;;;;;;;;22.37;58.30;98612.34;4935609;29;20047;-69
2022/07/12 07:05:17;;;;;;;9.88;4.53;;;;;;;22.44;58.40;98605.75;4935088;29;19965;-69
2022/07/12 07:07:44;;;;;;;8.05;4.70;;;;;;;22.43;58.32;98607.75;4951634;28;20055;-69
2022/07/12 07:10:12;;;;;;;9.27;4.88;;;;;;;22.52;57.94;98619.38;4954291;29;20163;-69
2022/07/12 07:12:39;;;;;;;7.00;4.22;;;;;;;22.63;57.30;98613.47;4957435;28;20134;-69
2022/07/12 07:15:06;;;;;;;8.23;4.32;;;;;;;22.68;57.06;98605.25;4958239;28;20079;-69
2022/07/12 07:17:34;;;;;;;10.23;3.85;;;;;;;22.70;56.94;98616.16;4958237;28;20055;-68
2022/07/12 07:20:01;;;;;;;12.48;4.50;;;;;;;22.67;56.66;98614.19;4957806;28;20074;-70
2022/07/12 07:22:29;;;;;;;14.43;4.50;;;;;;;22.68;56.75;98610.94;4958137;29;20446;-68
2022/07/12 07:24:55;;;;;;;8.93;3.72;;;;;;;22.97;56.11;98606.28;4957812;28;20142;-69
2022/07/12 07:27:22;;;;;;;11.30;3.85;;;;;;;24.11;53.25;98593.88;4957749;28;20463;-69
2022/07/12 07:32:35;;;;;;;5.13;2.78;;;;;;;34.82;32.41;98589.00;4957955;28;20122;-69
2022/07/12 07:35:04;;;;;;;7.93;3.10;;;;;;;38.39;26.58;98588.44;4957315;28;20090;-69
2022/07/12 07:37:32;;;;;;;9.85;3.67;;;;;;;40.30;23.90;98602.13;4957586;28;20047;-68
2022/07/12 07:39:59;;;;;;;12.07;3.05;;;;;;;42.29;21.18;98598.47;4955001;29;20423;-70
2022/07/12 07:42:25;;;;;;;8.88;2.83;;;;;;;41.51;21.54;98593.78;4947114;29;20154;-68
2022/07/12 07:44:52;;;;;;;6.90;3.17;;;;;;;39.08;23.81;98597.44;4941147;29;20044;-68
2022/07/12 07:47:48;;;;;;;7.15;2.55;;;;;;;36.00;27.87;98596.09;4957183;29;20062;-69
2022/07/12 07:50:34;;;;;;;6.15;2.90;;;;;;;32.94;31.81;98604.78;4963005;28;20051;-69
2022/07/12 07:53:02;;;;;;;7.45;2.72;;;;;;;33.59;30.95;98608.88;4950594;28;20559;-69
2022/07/12 07:55:28;;;;;;;5.22;2.83;;;;;;;33.99;29.79;98626.06;4949407;29;20043;-69
2022/07/12 07:57:55;;;;;;;5.63;2.95;;;;;;;31.40;33.70;98622.53;4956830;28;20058;-69
2022/07/12 08:00:22;;;;;;;5.07;2.95;;;;;;;29.48;37.35;98625.47;4956614;28;20062;-70
2022/07/12 08:02:49;;;;;;;5.18;3.20;;;;;;;28.48;39.16;98621.06;4956695;28;20097;-68
2022/07/12 08:05:16;;;;;;;5.10;3.28;;;;;;;27.65;41.32;98621.25;4957490;28;20150;-69
2022/07/12 08:07:43;;;;;;;6.90;3.50;;;;;;;26.93;42.82;98620.75;4957100;29;20415;-69
2022/07/12 08:10:20;;;;;;;9.30;4.47;;;;;;;26.44;44.18;98635.53;4957278;28;20043;-69
2022/07/12 08:12:47;;;;;;;13.75;3.75;;;;;;;26.25;44.85;98630.91;4957314;28;20069;-68
2022/07/12 08:15:14;;;;;;;14.70;4.00;;;;;;;26.39;44.42;98638.19;4956892;28;20077;-69
2022/07/12 08:17:41;;;;;;;6.75;3.90;;;;;;;26.06;45.22;98631.19;4957110;28;20047;-73
2022/07/12 08:20:16;;;;;;;10.48;3.85;;;;;;;29.98;38.40;98634.06;4952766;28;20047;-73
2022/07/12 08:23:03;;;;;;;15.80;4.15;;;;;;;36.79;27.65;98633.06;4952067;28;20051;-73
2022/07/12 08:25:30;;;;;;;8.07;3.42;;;;;;;40.05;23.40;98641.53;4952026;29;20455;-73
2022/07/12 08:27:57;;;;;;;5.93;2.90;;;;;;;38.23;25.17;98639.59;4953877;28;20043;-72
2022/07/12 08:30:26;;;;;;;7.95;3.20;;;;;;;39.02;23.46;98643.28;4951738;29;20051;-73
2022/07/12 08:32:54;;;;;;;5.60;2.90;;;;;;;36.61;26.43;98659.72;4952759;28;20053;-72
2022/07/12 08:35:21;;;;;;;;;;;;;;;34.33;29.56;98648.06;4953407;29;20089;-73
2022/07/12 08:37:48;;;;;;;5.75;2.55;;;;;;;33.34;30.50;98645.06;4956044;28;19972;-73
2022/07/12 08:40:15;;;;;;;6.70;3.30;;;;;;;31.31;33.85;98648.50;4955562;29;20514;-72
2022/07/12 08:42:43;;;;;;;7.68;3.38;;;;;;;31.03;33.36;98647.16;4956359;28;20042;-72
2022/07/12 08:45:10;;;;;;;4.97;2.97;;;;;;;29.97;35.06;98672.66;4955016;28;20133;-74
2022/07/12 08:47:37;;;;;;;6.45;3.83;;;;;;;35.86;26.53;98657.94;4955291;29;20047;-74
2022/07/12 08:50:17;;;;;;;10.52;3.42;;;;;;;40.75;20.97;98661.22;4955267;28;20146;-73
2022/07/12 08:52:46;;;;;;;4.57;2.63;;;;;;;43.69;17.72;98648.19;4954820;28;20043;-73
2022/07/12 08:55:20;;;;;;;;;;;;;;;44.87;16.64;98656.13;4956398;28;20089;-73
2022/07/12 08:57:48;;;;;;;10.68;2.70;;;;;;;47.10;14.26;98659.00;4955870;28;20416;-74
2022/07/12 09:00:16;;;;;;;5.97;2.85;;;;;;;48.74;13.55;98651.41;4954703;28;20055;-72
2022/07/12 09:02:48;;;;;;;4.80;2.90;;;;;;;47.79;14.01;98664.28;4954379;29;20047;-73
2022/07/12 09:05:18;;;;;;;13.95;9.35;;;;;;;47.73;13.29;98660.03;4955502;28;20091;-73
2022/07/12 09:07:45;;;;;;;8.63;3.15;;;;;;;43.22;17.13;98661.59;4954026;28;20533;-73
2022/07/12 09:10:13;;;;;;;6.93;2.42;;;;;;;38.87;21.20;98674.91;4955269;28;20039;-73
2022/07/12 09:12:41;;;;;;;7.43;3.05;;;;;;;41.98;17.91;98673.44;4954328;28;20051;-72
2022/07/12 09:15:21;;;;;;;8.43;3.10;;;;;;;42.06;17.76;98674.28;4943320;29;20043;-73
2022/07/12 09:18:03;;;;;;;7.82;2.63;;;;;;;44.55;15.41;98664.75;4955591;28;20139;-72
2022/07/12 09:20:38;;;;;;;8.65;3.08;;;;;;;46.83;14.22;98667.69;4955240;28;20043;-73
2022/07/12 09:23:08;;;;;;;4.82;2.72;;;;;;;49.01;12.43;98681.69;4948600;29;20061;-74
2022/07/12 09:25:37;;;;;;;7.50;2.95;;;;;;;45.77;14.63;98673.53;4955664;28;20507;-72
2022/07/12 09:28:08;;;;;;;6.57;3.50;;;;;;;40.94;18.76;98668.50;4955656;29;20043;-73
2022/07/12 09:30:46;;;;;;;15.57;3.90;;;;;;;42.06;18.03;98683.03;4956064;28;20059;-73
2022/07/12 09:36:07;;;;;;;6.15;3.17;;;;;;;41.13;18.29;98680.91;4952966;28;20051;-73
2022/07/12 09:38:36;;;;;;;11.52;2.85;;;;;;;43.59;16.04;98699.09;4954454;28;20459;-74
2022/07/12 09:41:05;;;;;;;8.02;2.88;;;;;;;43.22;15.87;98673.31;4954041;28;20399;-73
2022/07/12 09:43:32;;;;;;;4.68;2.50;;;;;;;38.70;20.11;98678.00;4953612;28;20083;-73
2022/07/12 09:46:00;;;;;;;7.43;3.80;;;;;;;35.86;23.47;98666.63;4951281;28;20135;-72
2022/07/12 09:48:28;;;;;;;10.50;2.97;;;;;;;34.67;25.37;98701.13;4950696;29;20098;-73
2022/07/12 09:50:57;;;;;;;5.00;3.10;;;;;;;33.46;27.10;98692.16;4953654;29;20411;-73
2022/07/12 09:53:31;;;;;;;9.82;4.18;;;;;;;32.34;29.15;98710.47;4954756;28;20047;-73
2022/07/12 09:56:02;;;;;;;6.30;3.58;;;;;;;31.27;30.90;98714.78;4950821;29;20054;-71
2022/07/12 09:58:39;;;;;;;6.43;3.00;;;;;;;30.26;32.83;98702.84;4950355;28;20070;-72
2022/07/12 10:01:07;;;;;;;7.90;3.45;;;;;;;29.82;33.83;98709.03;4950527;29;20055;-73
2022/07/12 10:03:43;;;;;;;5.28;3.17;;;;;;;29.37;34.17;98706.22;4951851;29;20047;-73
2022/07/12 10:06:12;;;;;;;4.95;2.80;;;;;;;28.84;35.15;98712.72;4952884;29;20046;-71
2022/07/12 10:08:40;;;;;;;5.20;3.00;;;;;;;28.41;35.62;98714.50;4954056;28;20082;-72
2022/07/12 10:11:07;;;;;;;5.65;2.90;;;;;;;28.15;36.35;98718.06;4953534;28;20047;-73
2022/07/12 10:13:35;;;;;;;6.53;3.22;;;;;;;27.94;36.72;98707.47;4952733;28;20059;-73
2022/07/12 10:16:04;;;;;;;32.00;12.45;;;;;;;27.60;37.22;98710.44;4952439;28;20070;-73
2022/07/12 10:18:30;;;;;;;4.05;2.60;;;;;;;27.38;37.22;98718.25;4950717;29;20047;-72
2022/07/12 10:20:57;;;;;;;6.22;2.25;;;;;;;27.41;37.50;98748.75;4948958;29;20586;-72
2022/07/12 10:23:36;;;;;;;5.75;2.22;;;;;;;27.66;37.11;98712.25;4951389;29;20059;-72
2022/07/12 10:26:15;;;;;;;4.93;2.77;;;;;;;27.64;37.00;98729.06;4949693;29;20061;-74
2022/07/12 10:29:01;;;;;;;;;;;;;;;27.46;36.87;98722.41;4951171;28;20134;-73
2022/07/12 10:31:31;;;;;;;26.08;10.35;;;;;;;27.50;36.85;98735.28;4949456;29;19980;-73
2022/07/12 10:34:24;;;;;;;13.45;2.20;;;;;;;27.27;36.61;98732.13;4951552;29;20455;-71
2022/07/12 10:36:54;;;;;;;5.65;1.30;;;;;;;27.28;36.19;98734.50;4950600;28;20035;-73
2022/07/12 10:39:41;;;;;;;5.55;1.30;;;;;;;27.29;35.53;98741.81;4949815;29;20055;-71
2022/07/12 10:42:08;;;;;;;2.30;1.00;;;;;;;27.13;35.14;98761.16;4950544;28;20118;-71
2022/07/12 10:44:46;;;;;;;1.38;0.90;;;;;;;26.97;34.67;98729.94;4948762;29;20051;-72
2022/07/12 10:47:15;;;;;;;6.72;0.98;;;;;;;26.96;34.61;98739.75;4949068;28;20051;-73
2022/07/12 10:49:52;;;;;;;2.40;1.05;;;;;;;26.91;34.24;98757.47;4950973;28;20130;-73
2022/07/12 10:52:28;;;;;;;4.78;1.15;;;;;;;26.72;33.98;98743.03;4949870;28;20077;-71
2022/07/12 10:54:54;;;;;;;2.45;1.15;;;;;;;26.73;34.20;98753.16;4951902;29;20046;-74
2022/07/12 10:57:43;;;;;;;8.43;1.40;;;;;;;26.83;34.14;98754.84;4948205;29;20059;-72
2022/07/12 11:00:11;;;;;;;6.38;2.50;;;;;;;26.74;34.78;98754.75;4954545;29;20043;-72
2022/07/12 11:02:38;;;;;;;3.78;1.58;;;;;;;26.51;35.50;98757.16;4951110;28;20043;-73
2022/07/12 11:05:05;;;;;;;1.80;1.10;;;;;;;26.63;35.19;98762.91;4949618;29;20059;-73
2022/07/12 11:07:33;;;;;;;3.80;1.10;;;;;;;26.64;35.58;98761.63;4948285;29;20059;-73
2022/07/12 11:10:00;;;;;;;1.63;1.10;;;;;;;26.52;35.84;98751.00;4951386;28;20051;-73
2022/07/12 11:12:30;;;;;;;5.97;1.08;;;;;;;26.44;36.12;98743.94;4949810;29;20049;-72
2022/07/12 11:15:01;;;;;;;2.55;1.15;;;;;;;26.42;36.01;98763.59;4950248;28;20051;-71
2022/07/12 11:17:31;;;;;;;3.10;1.13;;;;;;;26.55;36.06;98755.78;4950859;29;20051;-74
2022/07/12 11:20:12;;;;;;;4.30;1.20;;;;;;;26.83;36.27;98771.19;4937066;29;20051;-72
2022/07/12 11:22:42;;;;;;;3.35;1.83;;;;;;;26.56;36.77;98759.47;4954189;28;20050;-71
2022/07/12 11:25:11;;;;;;;2.83;1.77;;;;;;;26.43;37.13;98770.06;4954149;28;20542;-72
2022/07/12 11:27:38;;;;;;;4.30;1.33;;;;;;;26.36;37.27;98770.31;4953998;28;20055;-74
2022/07/12 11:30:08;;;;;;;2.03;1.05;;;;;;;26.52;37.16;98762.41;4953090;29;20054;-74
2022/07/12 11:32:43;;;;;;;;;;;;;;;26.63;36.83;98762.91;4954372;29;20047;-72
2022/07/12 11:35:25;;;;;;;5.03;1.27;;;;;;;26.82;37.01;98783.84;4953566;28;19977;-72
2022/07/12 11:37:56;;;;;;;2.55;1.30;;;;;;;26.86;36.62;98786.59;4954036;28;20065;-71
2022/07/12 11:40:30;;;;;;;9.38;4.72;;;;;;;26.75;36.75;98778.41;4954136;28;20059;-74
2022/07/12 11:42:59;;;;;;;57.25;27.77;;;;;;;26.67;37.19;98774.97;4953135;28;20387;-73
2022/07/12 11:45:32;;;;;;;4.55;2.42;;;;;;;26.65;37.32;98780.34;4949170;28;20047;-72
2022/07/12 11:48:02;;;;;;;6.38;1.35;;;;;;;26.55;37.20;98790.03;4952782;28;20043;-73
2022/07/12 11:50:30;;;;;;;3.65;1.30;;;;;;;26.43;37.64;98799.41;4938350;29;20091;-75